sensor_id;sensor_type;location;lat;lon;timestamp;pressure;altitude;pressure_sealevel;temperature;humidity
6196;BME280;3131;42.630;23.382;2022-09-03T00:02:43;94324.70;;;17.27;100.00
6196;BME280;3131;42.630;23.382;2022-09-03T00:05:17;94330.41;;;17.25;100.00
6196;BME280;3131;42.630;23.382;2022-09-03T00:07:52;94334.52;;;17.22;100.00
6196;BME280;3131;42.630;23.382;2022-09-03T00:10:25;94331.84;;;17.09;100.00
6196;BME280;3131;42.630;23.382;2022-09-03T00:15:38;94334.30;;;17.15;100.00
6196;BME280;3131;42.630;23.382;2022-09-03T00:18:09;94333.66;;;17.13;100.00
6196;BME280;3131;42.630;23.382;2022-09-03T00:20:42;94338.37;;;17.08;100.00
6196;BME280;3131;42.630;23.382;2022-09-03T00:23:15;94334.30;;;16.97;100.00
6196;BME280;3131;42.630;23.382;2022-09-03T00:25:48;94340.38;;;16.86;100.00
6196;BME280;3131;42.630;23.382;2022-09-03T00:31:05;94336.02;;;16.97;100.00
6196;BME280;3131;42.630;23.382;2022-09-03T00:33:36;94332.16;;;16.92;100.00
6196;BME280;3131;42.630;23.382;2022-09-03T00:38:50;94333.77;;;17.07;100.00
6196;BME280;3131;42.630;23.382;2022-09-03T00:44:20;94326.72;;;17.05;100.00
6196;BME280;3131;42.630;23.382;2022-09-03T00:46:52;94316.37;;;16.89;100.00
6196;BME280;3131;42.630;23.382;2022-09-03T00:49:33;94325.19;;;16.94;100.00
6196;BME280;3131;42.630;23.382;2022-09-03T00:52:07;94325.41;;;17.01;100.00
6196;BME280;3131;42.630;23.382;2022-09-03T00:57:29;94337.86;;;17.04;100.00
6196;BME280;3131;42.630;23.382;2022-09-03T01:00:04;94333.47;;;16.97;100.00
6196;BME280;3131;42.630;23.382;2022-09-03T01:02:43;94334.02;;;17.00;100.00
6196;BME280;3131;42.630;23.382;2022-09-03T01:05:20;94335.73;;;17.00;100.00
6196;BME280;3131;42.630;23.382;2022-09-03T01:07:53;94329.52;;;16.98;100.00
6196;BME280;3131;42.630;23.382;2022-09-03T01:10:26;94327.39;;;16.93;100.00
6196;BME280;3131;42.630;23.382;2022-09-03T01:12:59;94330.13;;;16.96;100.00
6196;BME280;3131;42.630;23.382;2022-09-03T01:15:33;94333.38;;;17.02;100.00
6196;BME280;3131;42.630;23.382;2022-09-03T01:18:10;94328.05;;;16.96;100.00
6196;BME280;3131;42.630;23.382;2022-09-03T01:20:53;94325.95;;;16.91;100.00
6196;BME280;3131;42.630;23.382;2022-09-03T01:26:34;94321.56;;;16.97;100.00
6196;BME280;3131;42.630;23.382;2022-09-03T01:29:10;94326.84;;;16.86;100.00
6196;BME280;3131;42.630;23.382;2022-09-03T01:31:47;94330.63;;;16.82;100.00
6196;BME280;3131;42.630;23.382;2022-09-03T01:34:21;94339.08;;;16.73;100.00
6196;BME280;3131;42.630;23.382;2022-09-03T01:36:56;94345.49;;;16.63;100.00
6196;BME280;3131;42.630;23.382;2022-09-03T01:39:30;94349.83;;;16.53;100.00
6196;BME280;3131;42.630;23.382;2022-09-03T01:42:05;94350.11;;;16.63;100.00
6196;BME280;3131;42.630;23.382;2022-09-03T01:50:38;94350.34;;;16.56;100.00
6196;BME280;3131;42.630;23.382;2022-09-03T01:53:12;94357.07;;;16.47;100.00
6196;BME280;3131;42.630;23.382;2022-09-03T01:55:51;94352.82;;;16.52;100.00
6196;BME280;3131;42.630;23.382;2022-09-03T01:58:20;94346.41;;;16.48;100.00
6196;BME280;3131;42.630;23.382;2022-09-03T02:00:53;94351.59;;;16.42;100.00
6196;BME280;3131;42.630;23.382;2022-09-03T02:03:24;94349.91;;;16.47;100.00
6196;BME280;3131;42.630;23.382;2022-09-03T02:05:55;94346.61;;;16.51;100.00
6196;BME280;3131;42.630;23.382;2022-09-03T02:08:24;94345.86;;;16.54;100.00
6196;BME280;3131;42.630;23.382;2022-09-03T02:10:55;94340.88;;;16.62;100.00
6196;BME280;3131;42.630;23.382;2022-09-03T02:13:29;94337.66;;;16.60;100.00
6196;BME280;3131;42.630;23.382;2022-09-03T02:16:01;94341.16;;;16.59;100.00
6196;BME280;3131;42.630;23.382;2022-09-03T02:18:35;94343.23;;;16.60;100.00
6196;BME280;3131;42.630;23.382;2022-09-03T02:21:05;94351.81;;;16.73;100.00
6196;BME280;3131;42.630;23.382;2022-09-03T02:23:34;94352.98;;;16.64;100.00
6196;BME280;3131;42.630;23.382;2022-09-03T02:26:07;94364.71;;;16.61;100.00
6196;BME280;3131;42.630;23.382;2022-09-03T02:28:38;94362.84;;;16.63;100.00
6196;BME280;3131;42.630;23.382;2022-09-03T02:31:07;94364.44;;;16.64;100.00
6196;BME280;3131;42.630;23.382;2022-09-03T02:33:38;94361.80;;;16.70;100.00
6196;BME280;3131;42.630;23.382;2022-09-03T02:36:10;94361.56;;;16.63;100.00
6196;BME280;3131;42.630;23.382;2022-09-03T02:38:42;94360.09;;;16.61;100.00
6196;BME280;3131;42.630;23.382;2022-09-03T02:41:11;94360.30;;;16.63;100.00
6196;BME280;3131;42.630;23.382;2022-09-03T02:43:44;94360.61;;;16.64;100.00
6196;BME280;3131;42.630;23.382;2022-09-03T02:48:55;94371.51;;;16.70;100.00
6196;BME280;3131;42.630;23.382;2022-09-03T02:51:25;94374.58;;;16.60;100.00
6196;BME280;3131;42.630;23.382;2022-09-03T02:53:54;94367.53;;;16.58;100.00
6196;BME280;3131;42.630;23.382;2022-09-03T02:56:23;94365.06;;;16.62;100.00
6196;BME280;3131;42.630;23.382;2022-09-03T02:58:54;94373.63;;;16.61;100.00
6196;BME280;3131;42.630;23.382;2022-09-03T03:01:24;94375.61;;;16.67;100.00
6196;BME280;3131;42.630;23.382;2022-09-03T03:03:54;94373.34;;;16.64;100.00
6196;BME280;3131;42.630;23.382;2022-09-03T03:06:23;94383.72;;;16.53;100.00
6196;BME280;3131;42.630;23.382;2022-09-03T03:08:52;94384.04;;;16.54;100.00
6196;BME280;3131;42.630;23.382;2022-09-03T03:11:22;94369.72;;;16.53;100.00
6196;BME280;3131;42.630;23.382;2022-09-03T03:13:52;94376.01;;;16.49;100.00
6196;BME280;3131;42.630;23.382;2022-09-03T03:16:22;94381.09;;;16.49;100.00
6196;BME280;3131;42.630;23.382;2022-09-03T03:18:51;94378.31;;;16.42;100.00
6196;BME280;3131;42.630;23.382;2022-09-03T03:21:21;94374.73;;;16.49;100.00
6196;BME280;3131;42.630;23.382;2022-09-03T03:23:50;94377.86;;;16.43;100.00
6196;BME280;3131;42.630;23.382;2022-09-03T03:26:20;94375.56;;;16.50;100.00
6196;BME280;3131;42.630;23.382;2022-09-03T03:28:54;94370.91;;;16.49;100.00
6196;BME280;3131;42.630;23.382;2022-09-03T03:31:23;94373.34;;;16.51;100.00
6196;BME280;3131;42.630;23.382;2022-09-03T03:33:55;94366.97;;;16.51;100.00
6196;BME280;3131;42.630;23.382;2022-09-03T03:36:26;94370.08;;;16.58;100.00
6196;BME280;3131;42.630;23.382;2022-09-03T03:38:57;94374.58;;;16.60;100.00
6196;BME280;3131;42.630;23.382;2022-09-03T03:41:27;94378.95;;;16.54;100.00
6196;BME280;3131;42.630;23.382;2022-09-03T03:43:59;94383.72;;;16.53;100.00
6196;BME280;3131;42.630;23.382;2022-09-03T03:46:31;94380.55;;;16.55;100.00
6196;BME280;3131;42.630;23.382;2022-09-03T03:49:01;94380.09;;;16.56;100.00
6196;BME280;3131;42.630;23.382;2022-09-03T03:51:31;94379.23;;;16.51;100.00
6196;BME280;3131;42.630;23.382;2022-09-03T03:54:01;94382.64;;;16.56;100.00
6196;BME280;3131;42.630;23.382;2022-09-03T03:56:30;94383.52;;;16.51;100.00
6196;BME280;3131;42.630;23.382;2022-09-03T03:59:00;94379.45;;;16.44;100.00
6196;BME280;3131;42.630;23.382;2022-09-03T04:01:29;94376.68;;;16.51;100.00
6196;BME280;3131;42.630;23.382;2022-09-03T04:03:59;94385.86;;;16.48;100.00
6196;BME280;3131;42.630;23.382;2022-09-03T04:06:29;94384.80;;;16.51;100.00
6196;BME280;3131;42.630;23.382;2022-09-03T04:08:58;94385.47;;;16.53;100.00
6196;BME280;3131;42.630;23.382;2022-09-03T04:11:27;94383.20;;;16.50;100.00
6196;BME280;3131;42.630;23.382;2022-09-03T04:13:56;94384.91;;;16.49;100.00
6196;BME280;3131;42.630;23.382;2022-09-03T04:16:27;94380.13;;;16.46;100.00
6196;BME280;3131;42.630;23.382;2022-09-03T04:18:57;94383.28;;;16.44;100.00
6196;BME280;3131;42.630;23.382;2022-09-03T04:21:28;94378.55;;;16.49;100.00
6196;BME280;3131;42.630;23.382;2022-09-03T04:23:58;94382.13;;;16.42;100.00
6196;BME280;3131;42.630;23.382;2022-09-03T04:26:29;94385.67;;;16.45;100.00
6196;BME280;3131;42.630;23.382;2022-09-03T04:28:59;94389.36;;;16.47;100.00
6196;BME280;3131;42.630;23.382;2022-09-03T04:31:29;94383.05;;;16.51;100.00
6196;BME280;3131;42.630;23.382;2022-09-03T04:33:59;94387.53;;;16.53;100.00
6196;BME280;3131;42.630;23.382;2022-09-03T04:36:29;94389.45;;;16.55;100.00
6196;BME280;3131;42.630;23.382;2022-09-03T04:38:59;94390.13;;;16.57;100.00
6196;BME280;3131;42.630;23.382;2022-09-03T04:41:30;94399.71;;;16.59;100.00
6196;BME280;3131;42.630;23.382;2022-09-03T04:43:59;94397.77;;;16.71;100.00
6196;BME280;3131;42.630;23.382;2022-09-03T04:46:29;94408.22;;;16.78;100.00
6196;BME280;3131;42.630;23.382;2022-09-03T04:49:00;94411.27;;;16.91;100.00
6196;BME280;3131;42.630;23.382;2022-09-03T04:51:29;94411.31;;;16.95;100.00
6196;BME280;3131;42.630;23.382;2022-09-03T04:54:00;94415.45;;;16.96;100.00
6196;BME280;3131;42.630;23.382;2022-09-03T04:56:30;94421.50;;;16.95;100.00
6196;BME280;3131;42.630;23.382;2022-09-03T04:59:01;94419.23;;;17.06;100.00
6196;BME280;3131;42.630;23.382;2022-09-03T05:01:32;94427.55;;;16.94;100.00
6196;BME280;3131;42.630;23.382;2022-09-03T05:04:02;94432.69;;;16.98;100.00
6196;BME280;3131;42.630;23.382;2022-09-03T05:06:35;94437.39;;;16.93;100.00
6196;BME280;3131;42.630;23.382;2022-09-03T05:09:05;94440.84;;;16.88;100.00
6196;BME280;3131;42.630;23.382;2022-09-03T05:11:34;94446.62;;;16.80;100.00
6196;BME280;3131;42.630;23.382;2022-09-03T05:14:04;94445.07;;;16.74;100.00
6196;BME280;3131;42.630;23.382;2022-09-03T05:16:33;94448.77;;;16.85;100.00
6196;BME280;3131;42.630;23.382;2022-09-03T05:19:03;94443.04;;;16.87;100.00
6196;BME280;3131;42.630;23.382;2022-09-03T05:21:35;94441.59;;;16.84;100.00
6196;BME280;3131;42.630;23.382;2022-09-03T05:24:05;94439.30;;;16.91;100.00
6196;BME280;3131;42.630;23.382;2022-09-03T05:29:15;94445.84;;;17.21;100.00
6196;BME280;3131;42.630;23.382;2022-09-03T05:31:46;94443.67;;;16.99;100.00
6196;BME280;3131;42.630;23.382;2022-09-03T05:34:16;94440.84;;;17.02;100.00
6196;BME280;3131;42.630;23.382;2022-09-03T05:36:45;94445.74;;;16.99;100.00
6196;BME280;3131;42.630;23.382;2022-09-03T05:39:16;94445.53;;;17.06;100.00
6196;BME280;3131;42.630;23.382;2022-09-03T05:41:45;94452.73;;;17.11;100.00
6196;BME280;3131;42.630;23.382;2022-09-03T05:44:16;94463.53;;;17.09;100.00
6196;BME280;3131;42.630;23.382;2022-09-03T05:46:45;94463.37;;;17.06;100.00
6196;BME280;3131;42.630;23.382;2022-09-03T05:49:14;94461.38;;;17.14;100.00
6196;BME280;3131;42.630;23.382;2022-09-03T05:51:43;94458.25;;;17.34;100.00
6196;BME280;3131;42.630;23.382;2022-09-03T05:54:13;94475.34;;;17.10;100.00
6196;BME280;3131;42.630;23.382;2022-09-03T05:56:42;94470.18;;;17.06;100.00
6196;BME280;3131;42.630;23.382;2022-09-03T05:59:12;94476.47;;;17.11;100.00
6196;BME280;3131;42.630;23.382;2022-09-03T06:01:43;94474.23;;;17.12;100.00
6196;BME280;3131;42.630;23.382;2022-09-03T06:04:14;94473.11;;;17.25;100.00
6196;BME280;3131;42.630;23.382;2022-09-03T06:06:45;94478.27;;;17.43;100.00
6196;BME280;3131;42.630;23.382;2022-09-03T06:09:16;94474.30;;;17.30;100.00
6196;BME280;3131;42.630;23.382;2022-09-03T06:11:47;94477.36;;;17.61;100.00
6196;BME280;3131;42.630;23.382;2022-09-03T06:14:16;94486.88;;;17.87;100.00
6196;BME280;3131;42.630;23.382;2022-09-03T06:16:47;94486.87;;;18.23;100.00
6196;BME280;3131;42.630;23.382;2022-09-03T06:21:57;94497.95;;;18.53;100.00
6196;BME280;3131;42.630;23.382;2022-09-03T06:24:26;94496.81;;;18.52;100.00
6196;BME280;3131;42.630;23.382;2022-09-03T06:29:37;94487.22;;;18.24;100.00
6196;BME280;3131;42.630;23.382;2022-09-03T06:32:06;94495.67;;;18.24;100.00
6196;BME280;3131;42.630;23.382;2022-09-03T06:37:23;94500.92;;;18.45;100.00
6196;BME280;3131;42.630;23.382;2022-09-03T06:39:52;94512.81;;;18.36;100.00
6196;BME280;3131;42.630;23.382;2022-09-03T06:45:03;94512.41;;;18.45;100.00
6196;BME280;3131;42.630;23.382;2022-09-03T06:47:34;94506.05;;;18.49;100.00
6196;BME280;3131;42.630;23.382;2022-09-03T06:50:03;94506.88;;;18.71;100.00
6196;BME280;3131;42.630;23.382;2022-09-03T06:55:16;94511.40;;;19.04;100.00
6196;BME280;3131;42.630;23.382;2022-09-03T06:57:45;94511.48;;;19.24;100.00
6196;BME280;3131;42.630;23.382;2022-09-03T07:00:16;94516.78;;;19.31;100.00
6196;BME280;3131;42.630;23.382;2022-09-03T07:02:45;94512.19;;;19.04;100.00
6196;BME280;3131;42.630;23.382;2022-09-03T07:05:15;94517.73;;;18.95;100.00
6196;BME280;3131;42.630;23.382;2022-09-03T07:07:44;94513.17;;;19.07;100.00
6196;BME280;3131;42.630;23.382;2022-09-03T07:10:14;94519.03;;;19.34;100.00
6196;BME280;3131;42.630;23.382;2022-09-03T07:12:44;94518.30;;;19.49;100.00
6196;BME280;3131;42.630;23.382;2022-09-03T07:15:14;94523.55;;;19.44;100.00
6196;BME280;3131;42.630;23.382;2022-09-03T07:17:43;94508.22;;;19.86;100.00
6196;BME280;3131;42.630;23.382;2022-09-03T07:20:12;94527.14;;;20.22;100.00
6196;BME280;3131;42.630;23.382;2022-09-03T07:22:42;94527.75;;;19.96;100.00
6196;BME280;3131;42.630;23.382;2022-09-03T07:25:11;94539.15;;;20.22;100.00
6196;BME280;3131;42.630;23.382;2022-09-03T07:27:41;94541.20;;;20.06;100.00
6196;BME280;3131;42.630;23.382;2022-09-03T07:30:12;94530.28;;;19.83;100.00
6196;BME280;3131;42.630;23.382;2022-09-03T07:32:41;94531.83;;;19.72;100.00
6196;BME280;3131;42.630;23.382;2022-09-03T07:35:10;94540.03;;;19.84;100.00
6196;BME280;3131;42.630;23.382;2022-09-03T07:37:41;94547.32;;;20.41;100.00
6196;BME280;3131;42.630;23.382;2022-09-03T07:40:11;94541.31;;;21.47;100.00
6196;BME280;3131;42.630;23.382;2022-09-03T07:42:42;94555.56;;;21.89;100.00
6196;BME280;3131;42.630;23.382;2022-09-03T07:45:11;94564.17;;;21.96;100.00
6196;BME280;3131;42.630;23.382;2022-09-03T07:47:47;94568.17;;;21.60;100.00
6196;BME280;3131;42.630;23.382;2022-09-03T07:50:17;94566.36;;;21.72;100.00
6196;BME280;3131;42.630;23.382;2022-09-03T07:52:46;94560.08;;;22.14;100.00
6196;BME280;3131;42.630;23.382;2022-09-03T07:55:15;94569.34;;;22.69;100.00
6196;BME280;3131;42.630;23.382;2022-09-03T07:57:45;94560.44;;;22.99;100.00
6196;BME280;3131;42.630;23.382;2022-09-03T08:00:15;94564.86;;;23.09;100.00
6196;BME280;3131;42.630;23.382;2022-09-03T08:02:45;94570.59;;;23.90;100.00
6196;BME280;3131;42.630;23.382;2022-09-03T08:05:14;94585.73;;;23.44;100.00
6196;BME280;3131;42.630;23.382;2022-09-03T08:07:45;94578.27;;;23.20;100.00
6196;BME280;3131;42.630;23.382;2022-09-03T08:10:15;94589.25;;;23.13;100.00
6196;BME280;3131;42.630;23.382;2022-09-03T08:12:44;94586.82;;;22.55;100.00
6196;BME280;3131;42.630;23.382;2022-09-03T08:15:13;94587.52;;;21.83;100.00
6196;BME280;3131;42.630;23.382;2022-09-03T08:17:45;94576.40;;;22.25;100.00
6196;BME280;3131;42.630;23.382;2022-09-03T08:20:15;94588.86;;;22.60;100.00
6196;BME280;3131;42.630;23.382;2022-09-03T08:22:44;94587.02;;;23.44;100.00
6196;BME280;3131;42.630;23.382;2022-09-03T08:25:14;94587.27;;;23.20;100.00
6196;BME280;3131;42.630;23.382;2022-09-03T08:27:43;94586.62;;;23.03;100.00
6196;BME280;3131;42.630;23.382;2022-09-03T08:30:12;94581.16;;;23.35;100.00
6196;BME280;3131;42.630;23.382;2022-09-03T08:32:41;94588.04;;;22.82;100.00
6196;BME280;3131;42.630;23.382;2022-09-03T08:35:10;94584.13;;;22.67;100.00
6196;BME280;3131;42.630;23.382;2022-09-03T08:37:39;94587.52;;;23.10;100.00
6196;BME280;3131;42.630;23.382;2022-09-03T08:40:10;94582.80;;;23.92;100.00
6196;BME280;3131;42.630;23.382;2022-09-03T08:42:46;94589.70;;;24.17;100.00
6196;BME280;3131;42.630;23.382;2022-09-03T08:45:18;94586.09;;;24.22;100.00
6196;BME280;3131;42.630;23.382;2022-09-03T08:47:49;94575.59;;;24.13;100.00
6196;BME280;3131;42.630;23.382;2022-09-03T08:53:05;94574.44;;;24.26;100.00
6196;BME280;3131;42.630;23.382;2022-09-03T08:55:36;94575.23;;;24.16;100.00
6196;BME280;3131;42.630;23.382;2022-09-03T08:58:12;94578.50;;;24.35;100.00
6196;BME280;3131;42.630;23.382;2022-09-03T09:00:47;94587.22;;;24.34;100.00
6196;BME280;3131;42.630;23.382;2022-09-03T09:03:36;94579.16;;;23.86;100.00
6196;BME280;3131;42.630;23.382;2022-09-03T09:06:12;94579.77;;;23.88;100.00
6196;BME280;3131;42.630;23.382;2022-09-03T09:08:47;94585.09;;;23.76;100.00
6196;BME280;3131;42.630;23.382;2022-09-03T09:11:19;94578.23;;;23.53;100.00
6196;BME280;3131;42.630;23.382;2022-09-03T09:13:52;94582.47;;;23.16;100.00
6196;BME280;3131;42.630;23.382;2022-09-03T09:16:26;94587.18;;;22.94;100.00
6196;BME280;3131;42.630;23.382;2022-09-03T09:19:02;94585.77;;;22.83;100.00
6196;BME280;3131;42.630;23.382;2022-09-03T09:21:33;94580.90;;;23.11;100.00
6196;BME280;3131;42.630;23.382;2022-09-03T09:24:05;94588.69;;;23.37;100.00
6196;BME280;3131;42.630;23.382;2022-09-03T09:26:36;94580.97;;;23.37;100.00
6196;BME280;3131;42.630;23.382;2022-09-03T09:29:08;94588.33;;;23.40;100.00
6196;BME280;3131;42.630;23.382;2022-09-03T09:31:38;94581.02;;;23.33;100.00
6196;BME280;3131;42.630;23.382;2022-09-03T09:34:11;94591.80;;;23.32;100.00
6196;BME280;3131;42.630;23.382;2022-09-03T09:36:45;94596.19;;;23.43;100.00
6196;BME280;3131;42.630;23.382;2022-09-03T09:39:15;94595.98;;;23.78;100.00
6196;BME280;3131;42.630;23.382;2022-09-03T09:41:56;94598.41;;;24.16;100.00
6196;BME280;3131;42.630;23.382;2022-09-03T09:44:26;94592.38;;;24.23;100.00
6196;BME280;3131;42.630;23.382;2022-09-03T09:47:06;94598.48;;;25.12;100.00
6196;BME280;3131;42.630;23.382;2022-09-03T09:49:50;94594.44;;;25.48;95.96
6196;BME280;3131;42.630;23.382;2022-09-03T09:52:10;94603.84;;;25.80;92.75
6196;BME280;3131;42.630;23.382;2022-09-03T09:54:41;94599.70;;;25.68;92.71
6196;BME280;3131;42.630;23.382;2022-09-03T09:57:15;94604.64;;;25.46;93.17
6196;BME280;3131;42.630;23.382;2022-09-03T09:59:45;94612.81;;;25.32;95.70
6196;BME280;3131;42.630;23.382;2022-09-03T10:02:19;94612.64;;;25.01;97.71
6196;BME280;3131;42.630;23.382;2022-09-03T10:04:50;94615.86;;;24.82;98.29
6196;BME280;3131;42.630;23.382;2022-09-03T10:07:25;94611.36;;;24.48;100.00
6196;BME280;3131;42.630;23.382;2022-09-03T10:10:02;94609.14;;;25.20;98.67
6196;BME280;3131;42.630;23.382;2022-09-03T10:12:34;94611.14;;;25.87;92.27
6196;BME280;3131;42.630;23.382;2022-09-03T10:18:01;94609.92;;;28.49;70.15
6196;BME280;3131;42.630;23.382;2022-09-03T10:20:35;94613.16;;;30.64;59.60
6196;BME280;3131;42.630;23.382;2022-09-03T10:23:12;94607.81;;;32.21;52.06
6196;BME280;3131;42.630;23.382;2022-09-03T10:25:51;94608.80;;;33.06;47.18
6196;BME280;3131;42.630;23.382;2022-09-03T10:28:24;94609.30;;;33.56;45.16
6196;BME280;3131;42.630;23.382;2022-09-03T10:31:04;94608.50;;;34.43;42.03
6196;BME280;3131;42.630;23.382;2022-09-03T10:33:36;94600.54;;;34.55;41.19
6196;BME280;3131;42.630;23.382;2022-09-03T10:36:13;94601.43;;;34.17;41.85
6196;BME280;3131;42.630;23.382;2022-09-03T10:38:42;94605.06;;;34.92;40.37
6196;BME280;3131;42.630;23.382;2022-09-03T10:41:20;94601.70;;;34.67;40.78
6196;BME280;3131;42.630;23.382;2022-09-03T10:49:49;94601.90;;;33.92;42.95
6196;BME280;3131;42.630;23.382;2022-09-03T10:52:25;94609.22;;;34.36;41.60
6196;BME280;3131;42.630;23.382;2022-09-03T10:55:12;94602.83;;;33.08;43.92
6196;BME280;3131;42.630;23.382;2022-09-03T10:57:50;94603.08;;;31.10;48.43
6196;BME280;3131;42.630;23.382;2022-09-03T11:00:19;94600.31;;;31.26;49.63
6196;BME280;3131;42.630;23.382;2022-09-03T11:06:05;94594.05;;;31.48;48.51
6196;BME280;3131;42.630;23.382;2022-09-03T11:08:36;94588.34;;;30.01;54.02
6196;BME280;3131;42.630;23.382;2022-09-03T11:11:12;94588.73;;;32.78;46.15
6196;BME280;3131;42.630;23.382;2022-09-03T11:13:45;94591.88;;;33.86;42.24
6196;BME280;3131;42.630;23.382;2022-09-03T11:16:16;94591.17;;;33.93;42.75
6196;BME280;3131;42.630;23.382;2022-09-03T11:18:50;94596.50;;;35.84;38.83
6196;BME280;3131;42.630;23.382;2022-09-03T11:21:22;94601.66;;;34.40;39.90
6196;BME280;3131;42.630;23.382;2022-09-03T11:23:56;94607.25;;;34.24;40.36
6196;BME280;3131;42.630;23.382;2022-09-03T11:26:26;94600.76;;;35.50;38.39
6196;BME280;3131;42.630;23.382;2022-09-03T11:28:59;94602.27;;;36.59;36.74
6196;BME280;3131;42.630;23.382;2022-09-03T11:34:25;94591.27;;;37.21;34.91
6196;BME280;3131;42.630;23.382;2022-09-03T11:37:06;94594.83;;;35.63;36.51
6196;BME280;3131;42.630;23.382;2022-09-03T11:39:38;94586.25;;;36.94;35.60
6196;BME280;3131;42.630;23.382;2022-09-03T11:44:50;94593.08;;;36.62;34.97
6196;BME280;3131;42.630;23.382;2022-09-03T11:47:24;94595.99;;;37.16;34.05
6196;BME280;3131;42.630;23.382;2022-09-03T11:52:33;94595.75;;;37.00;32.89
6196;BME280;3131;42.630;23.382;2022-09-03T11:55:07;94601.27;;;35.95;34.44
6196;BME280;3131;42.630;23.382;2022-09-03T11:57:41;94594.69;;;35.45;35.77
6196;BME280;3131;42.630;23.382;2022-09-03T12:00:14;94591.48;;;35.35;36.21
6196;BME280;3131;42.630;23.382;2022-09-03T12:02:46;94600.07;;;35.63;35.20
6196;BME280;3131;42.630;23.382;2022-09-03T12:05:22;94602.31;;;35.46;35.65
6196;BME280;3131;42.630;23.382;2022-09-03T12:10:51;94579.36;;;35.66;35.43
6196;BME280;3131;42.630;23.382;2022-09-03T12:13:45;94582.25;;;36.35;34.70
6196;BME280;3131;42.630;23.382;2022-09-03T12:19:39;94576.02;;;36.77;33.95
6196;BME280;3131;42.630;23.382;2022-09-03T12:22:14;94585.34;;;37.85;32.27
6196;BME280;3131;42.630;23.382;2022-09-03T12:24:44;94574.96;;;36.68;33.81
6196;BME280;3131;42.630;23.382;2022-09-03T12:27:17;94577.69;;;35.10;35.23
6196;BME280;3131;42.630;23.382;2022-09-03T12:29:54;94564.45;;;33.28;37.74
6196;BME280;3131;42.630;23.382;2022-09-03T12:32:27;94555.98;;;35.15;36.24
6196;BME280;3131;42.630;23.382;2022-09-03T12:35:08;94562.62;;;36.63;34.78
6196;BME280;3131;42.630;23.382;2022-09-03T12:37:31;94574.81;;;37.83;32.40
6196;BME280;3131;42.630;23.382;2022-09-03T12:40:03;94575.98;;;37.38;32.75
6196;BME280;3131;42.630;23.382;2022-09-03T12:42:34;94586.56;;;38.11;31.57
6196;BME280;3131;42.630;23.382;2022-09-03T12:45:06;94566.03;;;36.84;32.26
6196;BME280;3131;42.630;23.382;2022-09-03T12:47:39;94564.39;;;36.32;33.38
6196;BME280;3131;42.630;23.382;2022-09-03T12:50:11;94563.17;;;38.02;32.04
6196;BME280;3131;42.630;23.382;2022-09-03T12:55:31;94562.49;;;38.38;31.72
6196;BME280;3131;42.630;23.382;2022-09-03T12:58:04;94563.64;;;38.17;31.96
6196;BME280;3131;42.630;23.382;2022-09-03T13:00:36;94565.46;;;39.00;31.15
6196;BME280;3131;42.630;23.382;2022-09-03T13:03:07;94564.00;;;39.15;30.30
6196;BME280;3131;42.630;23.382;2022-09-03T13:05:40;94556.72;;;39.58;29.26
6196;BME280;3131;42.630;23.382;2022-09-03T13:08:14;94556.58;;;38.91;30.73
6196;BME280;3131;42.630;23.382;2022-09-03T13:10:44;94557.67;;;38.01;31.37
6196;BME280;3131;42.630;23.382;2022-09-03T13:13:25;94556.22;;;38.21;30.62
6196;BME280;3131;42.630;23.382;2022-09-03T13:16:05;94548.31;;;38.24;30.37
6196;BME280;3131;42.630;23.382;2022-09-03T13:18:37;94542.06;;;39.20;29.87
6196;BME280;3131;42.630;23.382;2022-09-03T13:21:13;94534.63;;;38.22;30.74
6196;BME280;3131;42.630;23.382;2022-09-03T13:24:03;94542.45;;;38.40;30.12
6196;BME280;3131;42.630;23.382;2022-09-03T13:26:39;94530.48;;;38.55;30.44
6196;BME280;3131;42.630;23.382;2022-09-03T13:29:36;94534.66;;;39.75;29.21
6196;BME280;3131;42.630;23.382;2022-09-03T13:32:09;94532.33;;;40.11;28.52
6196;BME280;3131;42.630;23.382;2022-09-03T13:34:45;94525.75;;;39.44;28.68
6196;BME280;3131;42.630;23.382;2022-09-03T13:37:18;94526.87;;;39.62;28.70
6196;BME280;3131;42.630;23.382;2022-09-03T13:39:51;94529.68;;;39.47;29.43
6196;BME280;3131;42.630;23.382;2022-09-03T13:42:21;94530.75;;;39.46;29.21
6196;BME280;3131;42.630;23.382;2022-09-03T13:44:54;94533.75;;;38.42;30.29
6196;BME280;3131;42.630;23.382;2022-09-03T13:47:28;94533.45;;;38.46;30.28
6196;BME280;3131;42.630;23.382;2022-09-03T13:50:02;94536.75;;;38.98;29.52
6196;BME280;3131;42.630;23.382;2022-09-03T13:52:53;94520.91;;;39.52;29.44
6196;BME280;3131;42.630;23.382;2022-09-03T13:55:27;94528.21;;;40.24;28.53
6196;BME280;3131;42.630;23.382;2022-09-03T13:58:00;94524.78;;;40.59;28.14
6196;BME280;3131;42.630;23.382;2022-09-03T14:00:31;94528.16;;;40.46;28.10
6196;BME280;3131;42.630;23.382;2022-09-03T14:03:07;94525.45;;;38.17;29.99
6196;BME280;3131;42.630;23.382;2022-09-03T14:05:48;94521.64;;;36.65;31.25
6196;BME280;3131;42.630;23.382;2022-09-03T14:08:22;94526.84;;;38.06;30.11
6196;BME280;3131;42.630;23.382;2022-09-03T14:10:59;94538.75;;;37.83;30.36
6196;BME280;3131;42.630;23.382;2022-09-03T14:13:45;94540.17;;;37.60;30.58
6196;BME280;3131;42.630;23.382;2022-09-03T14:16:17;94528.72;;;36.57;31.20
6196;BME280;3131;42.630;23.382;2022-09-03T14:18:50;94533.47;;;38.43;29.85
6196;BME280;3131;42.630;23.382;2022-09-03T14:21:21;94524.69;;;38.55;29.50
6196;BME280;3131;42.630;23.382;2022-09-03T14:23:58;94535.84;;;37.93;29.88
6196;BME280;3131;42.630;23.382;2022-09-03T14:26:28;94543.16;;;38.50;29.23
6196;BME280;3131;42.630;23.382;2022-09-03T14:29:02;94541.03;;;39.45;28.65
6196;BME280;3131;42.630;23.382;2022-09-03T14:31:46;94540.88;;;38.41;28.99
6196;BME280;3131;42.630;23.382;2022-09-03T14:34:20;94531.56;;;39.17;28.68
6196;BME280;3131;42.630;23.382;2022-09-03T14:36:51;94546.55;;;38.93;28.62
6196;BME280;3131;42.630;23.382;2022-09-03T14:39:33;94538.85;;;38.99;28.53
6196;BME280;3131;42.630;23.382;2022-09-03T14:42:27;94543.08;;;38.95;28.79
6196;BME280;3131;42.630;23.382;2022-09-03T14:45:22;94535.68;;;37.69;29.84